Aviation Digital Data Service (ADDS)

Output produced by TAFs form (0146 UTC 26 May 2017)
found at http://aviationweather.gov/adds/tafs/
 
METAR text: KFFZ 252353Z 23015G22KT 50SM SCT150 37/M06 A2964
Conditions at: KFFZ (MESA/FALCON FLD , AZ, US) observed 2353 UTC 25 May 2017
Temperature: 37.0°C (99°F)
Dewpoint: -6.0°C (21°F) [RH = 6%]
Pressure (altimeter): 29.64 inches Hg (1003.8 mb)
Winds: from the SW (230 degrees) at 17 MPH (15 knots; 7.8 m/s)
gusting to 25 MPH (22 knots; 11.4 m/s)
Visibility: 50 miles (80 km)
Ceiling: at least 12,000 feet AGL
Clouds: scattered clouds at 15000 feet AGL
Weather: no significant weather observed at this time

METAR text: KIWA 260047Z 26012G17KT 45SM BKN150 36/M06 A2964
Conditions at: KIWA (CHANDLER/MESA , AZ, US) observed 0047 UTC 26 May 2017
Temperature: 36.0°C (97°F)
Dewpoint: -6.0°C (21°F) [RH = 7%]
Pressure (altimeter): 29.64 inches Hg (1003.8 mb)
Winds: from the W (260 degrees) at 14 MPH (12 knots; 6.2 m/s)
gusting to 20 MPH (17 knots; 8.8 m/s)
Visibility: 45 miles (72 km)
Ceiling: 15000 feet AGL
Clouds: broken clouds at 15000 feet AGL
Weather: no significant weather observed at this time

Forecast for: KIWA (CHANDLER/MESA , AZ, US)
Text: KIWA 252321Z 2600/2624 26012G20KT P6SM BKN200
Forecast period: 0000 to 0300 UTC 26 May 2017
Forecast type: FROM: standard forecast or significant change
Winds: from the W (260 degrees) at 14 MPH (12 knots; 6.2 m/s)
gusting to 23 MPH (20 knots; 10.4 m/s)
Visibility: 6 or more miles (10+ km)
Ceiling: 20000 feet AGL
Clouds: broken clouds at 20000 feet AGL
Weather: no significant weather forecast for this period
Text: FM260300 28012KT P6SM FEW200
Forecast period: 0300 to 0800 UTC 26 May 2017
Forecast type: FROM: standard forecast or significant change
Winds: from the W (280 degrees) at 14 MPH (12 knots; 6.2 m/s)
Visibility: 6 or more miles (10+ km)
Clouds: few clouds at 20000 feet AGL
Weather: no significant weather forecast for this period
Text: FM260800 12010KT P6SM FEW200
Forecast period: 0800 to 2000 UTC 26 May 2017
Forecast type: FROM: standard forecast or significant change
Winds: from the ESE (120 degrees) at 12 MPH (10 knots; 5.2 m/s)
Visibility: 6 or more miles (10+ km)
Clouds: few clouds at 20000 feet AGL
Weather: no significant weather forecast for this period
Text: FM262000 23010KT P6SM SKC
Forecast period: 2000 UTC 26 May 2017 to 0000 UTC 27 May 2017
Forecast type: FROM: standard forecast or significant change
Winds: from the SW (230 degrees) at 12 MPH (10 knots; 5.2 m/s)
Visibility: 6 or more miles (10+ km)
Clouds: clear skies
Weather: no significant weather forecast for this period